createdAt,value
2023-03-04T00:08:35.165Z,-1.54
2023-03-04T00:18:41.129Z,-1.60
2023-03-04T00:28:47.682Z,-1.65
2023-03-04T00:38:51.874Z,-1.67
2023-03-04T00:48:57.602Z,-1.67
2023-03-04T00:59:03.322Z,-1.70
2023-03-04T01:09:09.551Z,-1.68
2023-03-04T01:19:15.492Z,-1.66
2023-03-04T01:29:21.166Z,-1.64
2023-03-04T01:39:26.754Z,-1.55
2023-03-04T01:49:32.575Z,-1.42
2023-03-04T01:59:39.618Z,-1.29
2023-03-04T02:09:45.849Z,-1.17
2023-03-04T02:19:52.400Z,-1.08
2023-03-04T02:29:58.215Z,-1.02
2023-03-04T02:40:04.344Z,-0.92
2023-03-04T02:50:12.469Z,-0.87
2023-03-04T03:00:18.415Z,-0.82
2023-03-04T03:10:24.449Z,-0.79
2023-03-04T03:20:30.152Z,-0.79
2023-03-04T03:30:36.048Z,-0.81
2023-03-04T03:40:42.271Z,-0.81
2023-03-04T03:50:47.942Z,-0.82
2023-03-04T04:00:55.850Z,-0.77
2023-03-04T04:11:02.780Z,-0.74
2023-03-04T04:21:09.098Z,-0.71
2023-03-04T04:31:14.879Z,-0.67
2023-03-04T04:41:23.822Z,-0.63
2023-03-04T04:51:29.601Z,-0.59
2023-03-04T05:01:35.554Z,-0.57
2023-03-04T05:11:41.232Z,-0.54
2023-03-04T05:21:47.113Z,-0.54
2023-03-04T05:31:52.785Z,-0.51
2023-03-04T05:41:58.413Z,-0.49
2023-03-04T05:52:04.119Z,-0.46
2023-03-04T06:02:09.874Z,-0.44
2023-03-04T06:12:15.711Z,-0.40
2023-03-04T06:22:21.323Z,-0.38
2023-03-04T06:32:27.149Z,-0.34
2023-03-04T06:42:32.811Z,-0.33
2023-03-04T06:52:38.484Z,-0.26
2023-03-04T07:02:44.249Z,-0.16
2023-03-04T07:12:50.015Z,-0.08
2023-03-04T07:22:55.887Z,-0.00
2023-03-04T07:33:01.476Z,0.09
2023-03-04T07:43:07.490Z,0.19
2023-03-04T07:53:13.122Z,0.23
2023-03-04T08:03:18.906Z,0.30
2023-03-04T08:13:25.913Z,0.39
2023-03-04T08:23:31.651Z,0.50
2023-03-04T08:33:37.586Z,0.70
2023-03-04T08:43:43.531Z,0.79
2023-03-04T08:53:49.185Z,0.85
2023-03-04T09:03:54.854Z,0.73
2023-03-04T09:14:00.560Z,0.77
2023-03-04T09:24:06.651Z,0.81
2023-03-04T09:34:12.488Z,0.90
2023-03-04T09:44:26.915Z,1.00
2023-03-04T09:55:04.993Z,1.11
2023-03-04T10:05:15.842Z,1.19
2023-03-04T10:15:29.418Z,1.26
2023-03-04T10:25:36.234Z,1.38
2023-03-04T10:35:40.356Z,1.58
2023-03-04T10:45:47.052Z,1.78
2023-03-04T10:55:51.473Z,1.99
2023-03-04T11:06:12.010Z,2.28
2023-03-04T11:16:28.736Z,2.35
2023-03-04T11:26:40.544Z,2.33
2023-03-04T11:36:57.318Z,2.37
2023-03-04T11:47:08.623Z,2.37
2023-03-04T11:57:29.975Z,2.32
2023-03-04T12:07:53.423Z,2.50
2023-03-04T12:18:16.202Z,2.99
2023-03-04T12:28:35.920Z,3.49
2023-03-04T12:38:59.065Z,3.52
2023-03-04T12:49:27.245Z,3.49
2023-03-04T12:59:38.792Z,3.35
2023-03-04T13:09:52.740Z,3.29
2023-03-04T13:20:12.790Z,3.55
2023-03-04T13:31:06.786Z,3.87
2023-03-04T13:41:17.168Z,3.88
2023-03-04T13:51:30.069Z,3.92
2023-03-04T14:01:38.190Z,3.77
2023-03-04T14:11:45.168Z,3.69
2023-03-04T14:21:50.943Z,3.62
2023-03-04T14:31:57.773Z,2.96
2023-03-04T14:42:04.531Z,1.78
2023-03-04T14:52:23.677Z,1.24
2023-03-04T15:02:33.239Z,1.05
2023-03-04T15:12:39.713Z,1.04
2023-03-04T15:33:15.853Z,1.12
2023-03-04T15:43:23.475Z,1.05
2023-03-04T15:53:33.762Z,1.07
2023-03-04T16:03:39.489Z,0.91
2023-03-04T16:13:45.247Z,0.79
2023-03-04T16:23:52.896Z,0.58
2023-03-04T16:33:58.540Z,0.25
2023-03-04T16:44:04.345Z,-0.01
2023-03-04T16:54:14.704Z,-0.04
2023-03-04T17:04:20.451Z,-0.25
2023-03-04T17:14:26.191Z,-0.33
2023-03-04T17:24:32.454Z,-0.40
2023-03-04T17:34:38.095Z,-0.71
2023-03-04T17:44:44.275Z,-0.87
2023-03-04T17:54:50.156Z,-0.94
2023-03-04T18:04:55.821Z,-0.82
2023-03-04T18:15:01.567Z,-0.70
2023-03-04T18:25:10.698Z,-0.81
2023-03-04T18:35:16.557Z,-0.93
2023-03-04T18:45:22.534Z,-0.79
2023-03-04T18:55:28.383Z,-0.62
2023-03-04T19:05:35.369Z,-0.64
2023-03-04T19:15:41.048Z,-0.69
2023-03-04T19:25:47.449Z,-0.84
2023-03-04T19:35:53.417Z,-1.17
2023-03-04T19:45:59.411Z,-1.43
2023-03-04T19:56:05.309Z,-1.59
2023-03-04T20:06:11.641Z,-1.91
2023-03-04T20:16:17.746Z,-2.25
2023-03-04T20:26:23.727Z,-2.55
2023-03-04T20:36:31.059Z,-2.80
2023-03-04T20:46:41.066Z,-3.14
2023-03-04T20:56:47.338Z,-3.55
2023-03-04T21:06:53.614Z,-3.86
2023-03-04T21:17:00.988Z,-4.11
2023-03-04T21:27:08.075Z,-4.34
2023-03-04T21:37:13.985Z,-4.56
2023-03-04T21:47:20.054Z,-4.72
2023-03-04T21:57:25.737Z,-4.91
2023-03-04T22:07:31.341Z,-5.07
2023-03-04T22:17:35.956Z,-5.21
2023-03-04T22:27:41.831Z,-5.34
2023-03-04T22:37:47.829Z,-5.50
2023-03-04T22:47:54.794Z,-5.57
2023-03-04T22:58:00.600Z,-5.68
2023-03-04T23:08:06.613Z,-5.74
2023-03-04T23:18:12.353Z,-5.85
2023-03-04T23:28:18.018Z,-5.99
2023-03-04T23:38:23.715Z,-6.11
2023-03-04T23:48:29.531Z,-6.24
2023-03-04T23:58:35.212Z,-6.36
